Time;durP1;ratioP1;P1;durP2;ratioP2;P2;SDS_P1;SDS_P2;PMS_P1;PMS_P2;Temp;Humidity;BMP_temperature;BMP_pressure;BME280_temperature;BME280_humidity;BME280_pressure;Samples;Min_cycle;Max_cycle;Signal;HPM_P1;HPM_P2
2023/10/30 00:01:32;;;;;;;2.37;2.37;;;11.90;79.40;;;;;;6252498;28;20840;-84
2023/10/30 00:04:45;;;;;;;;;;;;;;;;;;;;;
2023/10/30 00:07:48;;;;;;;2.40;2.40;;;11.90;79.20;;;;;;6220329;28;20944;-84
2023/10/30 00:10:53;;;;;;;2.20;2.20;;;11.90;78.80;;;;;;6241693;28;20274;-85
2023/10/30 00:13:58;;;;;;;2.33;2.23;;;11.90;78.90;;;;;;6242052;28;20349;-84
2023/10/30 00:17:01;;;;;;;2.27;2.17;;;11.90;78.60;;;;;;6241335;28;20246;-84
2023/10/30 00:20:06;;;;;;;2.47;2.47;;;11.90;78.40;;;;;;6239512;28;20455;-84
2023/10/30 00:23:09;;;;;;;2.43;2.40;;;11.90;78.30;;;;;;6239681;28;20256;-82
2023/10/30 00:26:13;;;;;;;2.20;2.20;;;11.90;77.90;;;;;;6239563;28;20238;-82
2023/10/30 00:29:17;;;;;;;2.50;2.30;;;11.90;77.70;;;;;;6226543;28;20770;-84
2023/10/30 00:32:20;;;;;;;2.53;2.40;;;11.90;77.50;;;;;;6241436;28;20234;-83
2023/10/30 00:35:24;;;;;;;2.50;2.40;;;11.90;77.20;;;;;;6236832;28;20234;-85
2023/10/30 00:38:27;;;;;;;2.50;2.30;;;11.90;77.40;;;;;;6235624;28;20223;-84
2023/10/30 00:41:32;;;;;;;2.33;2.33;;;11.90;77.40;;;;;;6228756;28;20231;-85
2023/10/30 00:44:37;;;;;;;2.83;2.07;;;11.90;77.20;;;;;;6225495;28;20817;-83
2023/10/30 00:47:41;;;;;;;2.20;2.20;;;11.90;77.10;;;;;;6255770;28;20300;-83
2023/10/30 00:50:44;;;;;;;2.13;2.03;;;11.90;76.90;;;;;;6261978;28;20284;-85
2023/10/30 00:53:48;;;;;;;4.10;2.00;;;11.90;76.70;;;;;;6235499;28;20238;-81
2023/10/30 00:56:52;;;;;;;4.33;2.20;;;11.90;76.60;;;;;;6241183;28;20381;-84
2023/10/30 00:59:55;;;;;;;2.17;2.07;;;11.90;76.80;;;;;;6240518;28;20292;-84
2023/10/30 01:02:58;;;;;;;2.10;2.00;;;11.90;76.70;;;;;;6240123;28;20324;-82
2023/10/30 01:06:05;;;;;;;2.30;2.20;;;11.80;77.00;;;;;;6232415;28;20245;-84
2023/10/30 01:09:08;;;;;;;2.27;2.20;;;11.80;76.80;;;;;;6238224;28;20238;-86
2023/10/30 01:12:13;;;;;;;2.57;2.10;;;11.80;77.00;;;;;;6237052;28;20845;-84
2023/10/30 01:15:18;;;;;;;2.43;2.33;;;11.80;76.90;;;;;;6246161;28;20839;-80
2023/10/30 01:18:21;;;;;;;3.50;2.63;;;11.80;76.80;;;;;;6246195;28;20238;-85
2023/10/30 01:21:24;;;;;;;2.27;2.27;;;11.90;76.50;;;;;;6239233;28;20237;-83
2023/10/30 01:24:28;;;;;;;2.17;2.07;;;11.90;76.30;;;;;;6239152;28;20611;-81
2023/10/30 01:27:33;;;;;;;2.30;2.30;;;11.90;76.50;;;;;;6217991;28;20256;-84
2023/10/30 01:30:36;;;;;;;2.10;2.10;;;11.90;76.40;;;;;;6224236;28;20296;-83
2023/10/30 01:33:40;;;;;;;2.50;2.40;;;11.90;76.40;;;;;;6232637;28;20755;-84
2023/10/30 01:36:43;;;;;;;2.20;2.20;;;11.80;76.50;;;;;;6223081;28;20654;-82
2023/10/30 01:39:46;;;;;;;2.57;2.40;;;11.80;76.50;;;;;;6210838;28;20761;-83
2023/10/30 01:42:51;;;;;;;2.57;2.47;;;11.80;76.40;;;;;;6243539;28;20227;-83
2023/10/30 01:45:54;;;;;;;2.13;2.03;;;11.90;76.10;;;;;;6231912;28;20246;-86
2023/10/30 01:48:57;;;;;;;2.20;2.00;;;11.90;76.30;;;;;;6232952;28;20312;-82
2023/10/30 01:52:01;;;;;;;2.17;2.10;;;11.80;76.40;;;;;;6237809;28;20297;-81
2023/10/30 01:55:05;;;;;;;2.20;2.10;;;11.90;76.30;;;;;;6237325;28;20423;-82
2023/10/30 01:58:11;;;;;;;2.57;2.37;;;11.80;76.30;;;;;;6224113;28;20242;-84
2023/10/30 02:01:14;;;;;;;2.40;2.37;;;11.80;76.10;;;;;;6238673;28;20239;-84
2023/10/30 02:04:18;;;;;;;2.23;2.13;;;11.90;76.20;;;;;;6237072;28;20368;-84
2023/10/30 02:07:21;;;;;;;2.10;2.00;;;11.70;76.50;;;;;;6238244;28;20281;-84
2023/10/30 02:10:24;;;;;;;2.27;2.27;;;11.70;76.60;;;;;;6237514;28;20243;-82
2023/10/30 02:13:30;;;;;;;1.97;1.93;;;11.70;76.30;;;;;;6241144;28;20242;-81
2023/10/30 02:16:33;;;;;;;2.47;2.37;;;11.70;76.40;;;;;;6239106;28;20327;-84
2023/10/30 02:19:37;;;;;;;2.17;2.00;;;11.80;76.10;;;;;;6236429;28;20232;-84
2023/10/30 02:22:40;;;;;;;2.23;2.13;;;11.70;76.30;;;;;;6228153;28;20828;-84
2023/10/30 02:25:44;;;;;;;2.20;2.10;;;11.70;76.30;;;;;;6247855;28;20326;-83
2023/10/30 02:28:48;;;;;;;2.50;2.30;;;11.70;76.40;;;;;;6234034;28;20243;-82
2023/10/30 02:31:55;;;;;;;2.40;2.23;;;11.70;76.50;;;;;;6251224;28;20234;-84
2023/10/30 02:34:58;;;;;;;2.10;2.00;;;11.70;76.40;;;;;;6235377;28;20261;-83
2023/10/30 02:38:02;;;;;;;2.87;2.07;;;11.70;76.60;;;;;;6239647;28;20287;-84
2023/10/30 02:41:06;;;;;;;2.37;2.00;;;11.70;76.70;;;;;;6257228;28;20860;-85
2023/10/30 02:44:10;;;;;;;2.63;2.43;;;11.70;76.80;;;;;;6255731;28;20368;-82
2023/10/30 02:47:13;;;;;;;2.80;2.60;;;11.60;76.90;;;;;;6236742;28;20234;-81
2023/10/30 02:50:17;;;;;;;2.70;2.33;;;11.60;76.90;;;;;;6239258;28;20284;-80
2023/10/30 02:53:20;;;;;;;2.33;2.13;;;11.70;76.60;;;;;;6252614;28;20327;-82
2023/10/30 02:56:25;;;;;;;2.30;2.20;;;11.60;76.70;;;;;;6252385;28;20242;-83
2023/10/30 02:59:29;;;;;;;4.53;2.50;;;11.70;76.70;;;;;;6251221;28;20318;-83
2023/10/30 03:02:32;;;;;;;2.40;2.30;;;11.70;76.70;;;;;;6247650;28;20262;-82
2023/10/30 03:05:35;;;;;;;2.40;2.30;;;11.60;76.90;;;;;;6239598;28;20231;-81
2023/10/30 03:08:38;;;;;;;2.30;2.20;;;11.60;76.90;;;;;;6210686;28;20238;-83
2023/10/30 03:11:46;;;;;;;2.40;2.30;;;11.60;76.90;;;;;;6216097;28;20235;-82
2023/10/30 03:14:49;;;;;;;3.77;2.47;;;11.60;76.90;;;;;;6228124;28;20254;-84
2023/10/30 03:17:54;;;;;;;2.40;2.13;;;11.50;76.70;;;;;;6238312;28;20243;-85
2023/10/30 03:21:00;;;;;;;2.30;2.20;;;11.50;76.90;;;;;;6241479;28;20246;-83
2023/10/30 03:24:03;;;;;;;3.93;2.53;;;11.50;77.00;;;;;;6233433;28;20602;-85
2023/10/30 03:27:08;;;;;;;2.73;2.53;;;11.50;77.10;;;;;;6251328;28;20312;-82
2023/10/30 03:30:12;;;;;;;2.50;2.40;;;11.50;77.10;;;;;;6241420;28;20230;-83
2023/10/30 03:33:15;;;;;;;2.37;2.17;;;11.60;76.80;;;;;;6239741;28;20238;-84
2023/10/30 03:36:22;;;;;;;2.60;2.10;;;11.60;77.00;;;;;;6234166;28;20246;-83
2023/10/30 03:39:26;;;;;;;2.33;2.23;;;11.50;77.00;;;;;;6240468;28;20621;-84
2023/10/30 03:42:30;;;;;;;2.20;2.20;;;11.50;77.10;;;;;;6240459;28;20848;-84
2023/10/30 03:45:34;;;;;;;2.33;2.23;;;11.60;76.80;;;;;;6239062;28;20289;-83
2023/10/30 03:48:37;;;;;;;2.57;2.33;;;11.60;76.80;;;;;;6248557;28;20758;-83
2023/10/30 03:51:43;;;;;;;2.37;2.10;;;11.50;76.80;;;;;;6259218;28;20227;-83
2023/10/30 03:54:47;;;;;;;2.10;2.10;;;11.50;76.70;;;;;;6233205;28;20234;-85
2023/10/30 03:57:54;;;;;;;2.20;2.10;;;11.50;77.00;;;;;;6241299;28;20606;-85
2023/10/30 04:00:57;;;;;;;2.17;2.07;;;11.50;76.90;;;;;;6247821;28;20246;-80
2023/10/30 04:04:00;;;;;;;2.87;2.00;;;11.50;77.00;;;;;;6253992;28;20234;-80
2023/10/30 04:07:04;;;;;;;2.33;2.23;;;11.50;76.90;;;;;;6247856;28;20739;-82
2023/10/30 04:10:08;;;;;;;2.40;2.30;;;11.50;76.80;;;;;;6253521;28;20773;-84
2023/10/30 04:13:12;;;;;;;2.50;2.40;;;11.50;77.00;;;;;;6247448;28;20738;-83
2023/10/30 04:16:16;;;;;;;2.40;2.30;;;11.50;77.20;;;;;;6248192;28;20773;-86
2023/10/30 04:19:23;;;;;;;2.03;2.03;;;11.50;77.20;;;;;;6237835;28;20238;-84
2023/10/30 04:22:26;;;;;;;2.43;2.20;;;11.50;77.30;;;;;;6257839;28;20279;-85
2023/10/30 04:25:31;;;;;;;3.37;2.13;;;11.40;77.70;;;;;;6249488;28;20243;-86
2023/10/30 04:28:36;;;;;;;2.60;2.40;;;11.40;77.60;;;;;;6252725;28;20729;-82
2023/10/30 04:31:43;;;;;;;3.20;2.50;;;11.40;77.70;;;;;;6259410;28;22776;-80
2023/10/30 04:34:46;;;;;;;3.50;2.50;;;11.40;77.70;;;;;;6245585;28;20331;-82
2023/10/30 04:37:50;;;;;;;2.60;2.40;;;11.40;78.00;;;;;;6256764;28;20238;-83
2023/10/30 04:40:53;;;;;;;3.67;2.70;;;11.40;78.00;;;;;;6241114;28;20214;-81
2023/10/30 04:43:58;;;;;;;2.37;2.17;;;11.50;77.70;;;;;;6248423;28;20289;-84
2023/10/30 04:47:04;;;;;;;2.93;2.70;;;11.50;77.80;;;;;;6244419;28;20239;-84
2023/10/30 04:50:08;;;;;;;2.70;2.50;;;11.50;77.80;;;;;;6246818;28;20712;-83
2023/10/30 04:53:11;;;;;;;2.53;2.43;;;11.40;77.90;;;;;;6251451;28;20234;-84
2023/10/30 04:56:14;;;;;;;5.73;2.20;;;11.40;77.80;;;;;;6251936;28;20241;-83
2023/10/30 04:59:19;;;;;;;3.27;2.10;;;11.40;78.10;;;;;;6241967;28;20308;-84
2023/10/30 05:02:22;;;;;;;2.70;2.50;;;11.40;78.00;;;;;;6244667;28;20258;-80
2023/10/30 05:05:26;;;;;;;2.53;2.33;;;11.40;78.10;;;;;;6248952;28;20285;-83
2023/10/30 05:08:29;;;;;;;2.30;2.30;;;11.30;78.10;;;;;;6232782;28;20234;-81
2023/10/30 05:11:33;;;;;;;2.70;2.20;;;11.30;78.20;;;;;;6256487;28;20709;-84
2023/10/30 05:14:38;;;;;;;4.37;2.60;;;11.40;78.10;;;;;;6238698;28;20239;-83
2023/10/30 05:17:41;;;;;;;3.67;2.50;;;11.40;77.90;;;;;;6251820;28;20282;-83
2023/10/30 05:20:45;;;;;;;2.47;2.37;;;11.40;77.80;;;;;;6240501;28;20235;-86
2023/10/30 05:23:49;;;;;;;2.93;2.73;;;11.40;77.80;;;;;;6238177;28;20891;-82
2023/10/30 05:26:53;;;;;;;2.33;2.23;;;11.40;78.20;;;;;;6247579;28;20246;-82
2023/10/30 05:29:58;;;;;;;2.73;2.70;;;11.30;78.30;;;;;;6255955;28;20227;-85
2023/10/30 05:33:01;;;;;;;2.30;2.23;;;11.40;77.90;;;;;;6241929;28;20235;-82
2023/10/30 05:36:06;;;;;;;4.53;2.80;;;11.50;77.70;;;;;;6245174;28;20857;-81
2023/10/30 05:39:09;;;;;;;3.40;2.60;;;11.50;77.70;;;;;;6256364;28;20258;-82
2023/10/30 05:42:12;;;;;;;4.70;2.63;;;11.50;77.70;;;;;;6253930;28;20226;-84
2023/10/30 05:45:18;;;;;;;2.20;2.20;;;11.40;78.00;;;;;;6251514;28;20238;-84
2023/10/30 05:48:21;;;;;;;2.93;2.63;;;11.40;78.10;;;;;;6251379;28;20876;-83
2023/10/30 05:51:24;;;;;;;2.87;2.50;;;11.40;78.20;;;;;;6246176;28;20384;-84
2023/10/30 05:54:28;;;;;;;5.13;2.73;;;11.40;78.20;;;;;;6243529;28;20246;-82
2023/10/30 05:57:31;;;;;;;3.17;2.87;;;11.40;78.20;;;;;;6229892;28;20282;-83
2023/10/30 06:00:35;;;;;;;2.50;2.37;;;11.40;78.30;;;;;;6250341;28;20279;-82
2023/10/30 06:03:39;;;;;;;3.13;2.83;;;11.40;78.10;;;;;;6238584;28;20931;-83
2023/10/30 06:06:42;;;;;;;3.17;2.80;;;11.40;78.10;;;;;;6248167;28;20245;-83
2023/10/30 06:09:45;;;;;;;2.60;2.50;;;11.40;78.10;;;;;;6250538;28;20262;-83
2023/10/30 06:12:49;;;;;;;2.93;2.67;;;11.40;78.20;;;;;;6251954;28;20270;-84
2023/10/30 06:15:55;;;;;;;2.80;2.70;;;11.40;78.20;;;;;;6240001;28;21297;-84
2023/10/30 06:18:58;;;;;;;3.23;2.53;;;11.50;78.10;;;;;;6246149;28;20233;-84
2023/10/30 06:22:01;;;;;;;3.27;3.00;;;11.40;78.40;;;;;;6246820;28;20226;-83
2023/10/30 06:25:06;;;;;;;3.00;2.70;;;11.40;78.40;;;;;;6250429;28;20232;-82
2023/10/30 06:28:10;;;;;;;3.30;3.17;;;11.50;78.40;;;;;;6244227;28;20230;-83
2023/10/30 06:31:19;;;;;;;3.03;2.83;;;11.40;78.60;;;;;;6258152;28;20359;-84
2023/10/30 06:34:23;;;;;;;7.40;3.47;;;11.50;78.70;;;;;;6256397;28;20321;-83
2023/10/30 06:37:26;;;;;;;3.90;2.97;;;11.40;78.50;;;;;;6245800;28;20384;-83
2023/10/30 06:40:30;;;;;;;3.10;2.50;;;11.50;78.30;;;;;;6237874;28;20235;-82
2023/10/30 06:43:34;;;;;;;3.47;3.17;;;11.50;78.40;;;;;;6242645;28;20319;-83
2023/10/30 06:46:39;;;;;;;3.30;3.00;;;11.50;78.50;;;;;;6247004;28;20242;-84
2023/10/30 06:49:42;;;;;;;3.27;3.00;;;11.60;78.40;;;;;;6246822;28;20231;-84
2023/10/30 06:52:45;;;;;;;3.17;2.97;;;11.60;78.20;;;;;;6213188;28;20254;-82
2023/10/30 06:55:49;;;;;;;2.80;2.70;;;11.70;78.10;;;;;;6218813;28;20231;-82
2023/10/30 06:58:53;;;;;;;2.70;2.60;;;11.80;77.60;;;;;;6226548;28;20237;-83
2023/10/30 07:01:58;;;;;;;5.50;3.00;;;11.90;77.60;;;;;;6231202;28;20303;-83
2023/10/30 07:05:02;;;;;;;5.87;3.13;;;11.90;77.20;;;;;;6227121;28;20809;-82
2023/10/30 07:08:05;;;;;;;9.17;2.93;;;11.90;77.10;;;;;;6230717;28;20865;-83
2023/10/30 07:11:10;;;;;;;2.73;2.60;;;12.00;76.80;;;;;;6236753;28;20719;-84
2023/10/30 07:14:13;;;;;;;3.00;2.80;;;12.00;76.80;;;;;;6240399;28;20242;-83
2023/10/30 07:17:18;;;;;;;2.80;2.60;;;12.20;76.40;;;;;;6237451;28;20710;-84
2023/10/30 07:20:21;;;;;;;3.13;2.80;;;12.30;75.90;;;;;;6235936;28;20235;-83
2023/10/30 07:23:25;;;;;;;5.53;3.33;;;12.40;75.60;;;;;;6236272;28;20239;-83
2023/10/30 07:26:28;;;;;;;2.73;2.33;;;12.50;75.30;;;;;;6234345;28;20305;-84
2023/10/30 07:29:32;;;;;;;2.67;2.47;;;12.50;75.00;;;;;;6236217;28;20238;-84
2023/10/30 07:32:37;;;;;;;6.47;3.17;;;12.50;75.00;;;;;;6241568;28;20722;-82
2023/10/30 07:35:40;;;;;;;2.87;2.60;;;12.50;74.90;;;;;;6232959;28;20235;-80
2023/10/30 07:38:43;;;;;;;6.23;2.90;;;12.60;75.00;;;;;;6234919;28;20317;-83
2023/10/30 07:41:47;;;;;;;3.30;2.97;;;12.70;74.40;;;;;;6243051;28;20725;-82
2023/10/30 07:44:50;;;;;;;4.63;2.87;;;12.70;74.70;;;;;;6232462;28;20729;-84
2023/10/30 07:47:55;;;;;;;2.77;2.57;;;12.80;74.50;;;;;;6243152;28;20359;-83
2023/10/30 07:51:02;;;;;;;6.17;2.93;;;12.80;73.60;;;;;;6266068;28;20282;-84
2023/10/30 07:54:06;;;;;;;5.53;2.97;;;12.90;74.00;;;;;;6273487;28;20214;-79
2023/10/30 07:57:10;;;;;;;3.93;2.73;;;12.90;74.30;;;;;;6272235;28;20249;-77
2023/10/30 08:00:14;;;;;;;2.93;2.70;;;13.00;73.70;;;;;;6265574;28;20216;-79
2023/10/30 08:03:19;;;;;;;4.37;2.90;;;13.00;74.10;;;;;;6270644;28;20223;-80
2023/10/30 08:06:24;;;;;;;7.57;2.60;;;13.10;73.80;;;;;;6268818;28;20219;-81
2023/10/30 08:09:27;;;;;;;4.00;3.00;;;13.30;73.30;;;;;;6265495;28;20218;-79
2023/10/30 08:12:30;;;;;;;4.53;2.70;;;13.30;72.90;;;;;;6272984;28;20239;-83
2023/10/30 08:15:34;;;;;;;4.40;3.17;;;13.30;72.80;;;;;;6275322;28;20295;-82
2023/10/30 08:18:39;;;;;;;2.80;2.60;;;13.50;73.20;;;;;;6272659;28;20888;-82
2023/10/30 08:21:42;;;;;;;3.30;2.60;;;13.50;72.90;;;;;;6266889;28;20223;-80
2023/10/30 08:24:46;;;;;;;2.67;2.57;;;13.50;72.20;;;;;;6270443;28;20223;-80
2023/10/30 08:27:49;;;;;;;3.63;2.50;;;13.60;72.90;;;;;;6269909;28;20252;-80
2023/10/30 08:30:53;;;;;;;2.70;2.50;;;13.60;72.20;;;;;;6271954;28;20218;-84
2023/10/30 08:34:00;;;;;;;2.80;2.60;;;13.60;72.20;;;;;;6272437;28;20230;-79
2023/10/30 08:37:04;;;;;;;7.67;5.80;;;13.60;72.30;;;;;;6276729;28;20222;-80
2023/10/30 08:40:09;;;;;;;2.97;2.67;;;13.70;71.90;;;;;;6280653;28;20227;-83
2023/10/30 08:43:12;;;;;;;5.27;3.00;;;13.60;71.70;;;;;;6275678;28;20222;-83
2023/10/30 08:46:19;;;;;;;5.77;3.13;;;13.50;72.20;;;;;;6270608;28;20214;-83
2023/10/30 08:49:24;;;;;;;3.03;2.60;;;13.70;72.00;;;;;;6278901;28;20234;-80
2023/10/30 08:52:27;;;;;;;3.00;2.77;;;13.70;72.30;;;;;;6282232;28;20231;-79
2023/10/30 08:55:30;;;;;;;4.50;2.93;;;13.60;72.20;;;;;;6271833;28;20230;-83
2023/10/30 08:58:33;;;;;;;3.40;2.87;;;13.60;72.20;;;;;;6288241;28;20228;-80
2023/10/30 09:01:36;;;;;;;2.80;2.60;;;13.60;72.00;;;;;;6287305;28;20241;-82
2023/10/30 09:04:41;;;;;;;2.73;2.60;;;13.80;72.20;;;;;;6288451;28;20222;-79
2023/10/30 09:07:46;;;;;;;3.03;2.70;;;13.90;71.80;;;;;;6278116;28;20233;-77
2023/10/30 09:10:49;;;;;;;6.80;2.97;;;14.00;71.60;;;;;;6284854;28;20294;-77
2023/10/30 09:13:53;;;;;;;4.50;2.40;;;14.10;71.30;;;;;;6286374;28;20292;-78
2023/10/30 09:16:56;;;;;;;2.37;2.27;;;14.20;70.70;;;;;;6271564;28;20243;-80
2023/10/30 09:20:00;;;;;;;4.23;2.97;;;14.20;70.70;;;;;;6253682;28;20226;-83
2023/10/30 09:23:04;;;;;;;5.03;2.53;;;14.40;70.80;;;;;;6269191;28;20214;-79
2023/10/30 09:26:07;;;;;;;3.27;2.33;;;14.40;70.50;;;;;;6254852;28;20238;-83
2023/10/30 09:29:10;;;;;;;5.77;2.80;;;14.30;70.30;;;;;;6231251;28;20336;-81
2023/10/30 09:32:14;;;;;;;2.63;2.40;;;14.30;70.70;;;;;;6244065;28;20317;-82
2023/10/30 09:35:20;;;;;;;4.30;2.73;;;14.40;70.90;;;;;;6240114;28;20318;-83
2023/10/30 09:38:24;;;;;;;3.20;2.50;;;14.50;70.50;;;;;;6235446;28;20765;-83
2023/10/30 09:41:29;;;;;;;4.87;2.60;;;14.60;69.90;;;;;;6245408;28;20242;-81
2023/10/30 09:44:40;;;;;;;2.90;2.20;;;14.40;69.60;;;;;;6244627;28;20387;-82
2023/10/30 09:47:43;;;;;;;3.57;2.70;;;14.50;69.70;;;;;;6239306;28;20239;-83
2023/10/30 09:50:48;;;;;;;2.80;2.50;;;14.30;69.90;;;;;;6240364;28;20259;-81
2023/10/30 09:53:54;;;;;;;3.70;2.83;;;14.50;70.00;;;;;;6227913;28;20623;-84
2023/10/30 09:57:00;;;;;;;4.20;2.60;;;14.60;69.50;;;;;;6239698;28;20249;-84
2023/10/30 10:00:05;;;;;;;6.90;2.70;;;14.50;69.90;;;;;;6238558;28;20258;-84
2023/10/30 10:03:10;;;;;;;29.93;4.27;;;14.60;69.70;;;;;;6237974;28;20579;-84
2023/10/30 10:06:16;;;;;;;12.40;3.03;;;14.50;69.90;;;;;;6229668;28;20708;-83
2023/10/30 10:09:20;;;;;;;4.33;2.57;;;14.60;69.90;;;;;;6233778;28;20397;-84
2023/10/30 10:12:24;;;;;;;3.00;2.80;;;14.70;69.20;;;;;;6239797;28;20334;-83
2023/10/30 10:15:27;;;;;;;5.27;2.70;;;14.60;69.60;;;;;;6241062;28;20269;-82
2023/10/30 10:18:32;;;;;;;5.43;3.00;;;14.80;69.50;;;;;;6238591;28;20250;-84
2023/10/30 10:21:47;;;;;;;4.57;2.63;;;14.90;69.10;;;;;;6237633;28;20320;-83
2023/10/30 10:24:51;;;;;;;3.53;2.60;;;14.90;69.30;;;;;;6226588;28;20234;-85
2023/10/30 10:27:54;;;;;;;5.10;3.10;;;15.00;69.20;;;;;;6221324;28;20238;-85
2023/10/30 10:30:59;;;;;;;3.43;2.43;;;15.00;68.80;;;;;;6230660;28;20234;-80
2023/10/30 10:34:02;;;;;;;7.67;2.43;;;14.90;69.40;;;;;;6237848;28;20302;-82
2023/10/30 10:37:16;;;;;;;4.83;2.73;;;15.00;69.20;;;;;;6237485;28;20270;-85
2023/10/30 10:40:22;;;;;;;4.97;2.50;;;14.90;69.60;;;;;;6209359;28;20274;-85
2023/10/30 10:43:28;;;;;;;2.97;2.73;;;15.00;69.90;;;;;;6233885;28;20235;-83
2023/10/30 10:46:31;;;;;;;5.30;2.70;;;14.90;69.70;;;;;;6220045;28;20734;-82
2023/10/30 10:49:38;;;;;;;10.27;2.97;;;15.00;69.50;;;;;;6231122;28;20235;-82
2023/10/30 10:52:43;;;;;;;4.87;2.90;;;15.10;68.60;;;;;;6215678;28;20228;-81
2023/10/30 10:55:56;;;;;;;7.43;2.77;;;15.10;69.20;;;;;;6227611;28;20696;-84
2023/10/30 10:59:04;;;;;;;4.97;2.83;;;15.00;68.50;;;;;;6219492;28;20247;-82
2023/10/30 11:02:11;;;;;;;5.40;3.07;;;14.90;69.10;;;;;;6219061;28;20592;-85
2023/10/30 11:05:15;;;;;;;3.93;2.67;;;14.80;69.60;;;;;;6238705;28;20294;-83
2023/10/30 11:08:40;;;;;;;5.10;3.33;;;14.70;69.70;;;;;;6255054;28;20234;-83
2023/10/30 11:11:52;;;;;;;2.80;2.60;;;14.70;70.30;;;;;;6250274;28;20312;-86
2023/10/30 11:15:12;;;;;;;4.17;2.73;;;14.70;70.50;;;;;;6228162;28;20695;-84
2023/10/30 11:18:17;;;;;;;47.93;7.87;;;14.80;70.30;;;;;;6227405;28;20300;-84
2023/10/30 11:21:26;;;;;;;6.17;3.50;;;14.90;70.20;;;;;;6231053;28;20238;-83
2023/10/30 11:24:38;;;;;;;3.57;3.27;;;15.00;70.00;;;;;;6245409;28;20299;-82
2023/10/30 11:27:42;;;;;;;2.80;2.60;;;15.30;69.80;;;;;;6223729;28;20299;-84
2023/10/30 11:30:49;;;;;;;4.63;2.67;;;15.50;69.00;;;;;;6237940;28;20242;-83
2023/10/30 11:34:07;;;;;;;2.93;2.73;;;15.40;68.60;;;;;;6241769;28;20280;-84
2023/10/30 11:37:12;;;;;;;5.90;4.33;;;15.30;68.70;;;;;;6240856;28;20231;-82
2023/10/30 11:40:18;;;;;;;15.70;4.93;;;15.30;68.90;;;;;;6248410;28;20282;-83
2023/10/30 11:43:29;;;;;;;8.20;3.10;;;15.40;68.90;;;;;;6248871;28;20242;-82
2023/10/30 11:46:41;;;;;;;3.13;2.17;;;15.60;68.30;;;;;;6241699;28;20377;-84
2023/10/30 11:49:46;;;;;;;3.67;2.70;;;15.80;67.20;;;;;;6246463;28;20229;-83
2023/10/30 11:52:51;;;;;;;10.20;3.73;;;15.50;67.80;;;;;;6262979;28;20884;-83
2023/10/30 11:55:56;;;;;;;6.00;3.30;;;15.20;68.10;;;;;;6255484;28;20835;-85
2023/10/30 11:59:00;;;;;;;5.27;3.13;;;15.00;68.80;;;;;;6254764;28;20264;-84
2023/10/30 12:02:06;;;;;;;3.07;2.70;;;15.00;69.30;;;;;;6254400;28;20961;-82
2023/10/30 12:05:11;;;;;;;2.80;2.40;;;15.00;68.90;;;;;;6237710;28;20245;-83
2023/10/30 12:08:14;;;;;;;3.00;2.77;;;15.00;68.70;;;;;;6255868;28;20238;-82
2023/10/30 12:11:19;;;;;;;3.17;2.60;;;14.90;69.20;;;;;;6254976;28;20860;-83
2023/10/30 12:14:22;;;;;;;5.60;2.40;;;14.80;69.30;;;;;;6243208;28;20242;-82
2023/10/30 12:17:25;;;;;;;2.93;2.23;;;14.90;69.70;;;;;;6254334;28;20249;-82
2023/10/30 12:20:29;;;;;;;3.07;2.70;;;14.80;69.30;;;;;;6248586;28;20623;-86
2023/10/30 12:23:32;;;;;;;2.40;2.30;;;14.80;69.70;;;;;;6248624;28;20249;-83
2023/10/30 12:26:41;;;;;;;2.30;2.20;;;14.70;69.80;;;;;;6243314;28;20765;-81
2023/10/30 12:29:45;;;;;;;7.03;2.90;;;14.80;69.80;;;;;;6252432;28;20234;-83
2023/10/30 12:32:57;;;;;;;6.73;2.90;;;14.80;70.10;;;;;;6240799;28;20305;-82
2023/10/30 12:36:00;;;;;;;4.83;2.93;;;15.00;69.90;;;;;;6248916;28;20382;-83
2023/10/30 12:39:17;;;;;;;3.10;2.80;;;15.00;69.90;;;;;;6247640;28;20802;-85
2023/10/30 12:42:23;;;;;;;5.43;4.70;;;15.00;69.10;;;;;;6240944;28;20246;-83
2023/10/30 12:45:26;;;;;;;2.90;2.70;;;14.90;69.40;;;;;;6241608;28;20270;-82
2023/10/30 12:48:30;;;;;;;2.70;2.60;;;14.90;69.70;;;;;;6253064;28;20242;-85
2023/10/30 12:51:34;;;;;;;5.07;2.53;;;14.70;69.70;;;;;;6247891;28;20238;-82
2023/10/30 12:54:38;;;;;;;3.33;2.50;;;14.70;70.20;;;;;;6241941;28;20242;-85
2023/10/30 12:57:42;;;;;;;2.60;2.40;;;14.80;69.50;;;;;;6256587;28;20261;-83
2023/10/30 13:01:03;;;;;;;2.57;2.47;;;14.90;69.90;;;;;;6244080;28;20234;-84
2023/10/30 13:04:09;;;;;;;3.80;2.53;;;15.00;69.20;;;;;;6251542;28;20345;-83
2023/10/30 13:07:13;;;;;;;3.20;2.73;;;15.20;68.90;;;;;;6253981;28;20666;-84
2023/10/30 13:10:16;;;;;;;2.37;2.10;;;15.40;68.20;;;;;;6236433;28;20346;-83
2023/10/30 13:13:21;;;;;;;3.80;2.40;;;15.30;68.00;;;;;;6250963;28;20246;-81
2023/10/30 13:16:26;;;;;;;2.90;2.43;;;15.30;67.90;;;;;;6249930;28;20254;-82
2023/10/30 13:19:29;;;;;;;3.10;2.80;;;15.20;68.10;;;;;;6245483;28;20640;-83
2023/10/30 13:22:32;;;;;;;3.57;2.57;;;15.00;68.30;;;;;;6246041;28;20257;-83
2023/10/30 13:25:36;;;;;;;2.57;2.40;;;14.90;68.90;;;;;;6251642;28;20890;-85
2023/10/30 13:28:40;;;;;;;2.27;2.10;;;14.90;69.50;;;;;;6251712;28;20222;-83
2023/10/30 13:31:43;;;;;;;6.43;2.57;;;14.90;69.10;;;;;;6255417;28;20624;-83
2023/10/30 13:34:46;;;;;;;2.50;2.40;;;14.80;69.00;;;;;;6253906;28;20246;-84
2023/10/30 13:37:50;;;;;;;3.93;2.50;;;14.80;69.30;;;;;;6251368;28;20241;-83
2023/10/30 13:40:53;;;;;;;4.63;3.00;;;14.80;69.10;;;;;;6257474;28;20328;-85
2023/10/30 13:43:58;;;;;;;5.00;3.33;;;14.80;69.30;;;;;;6243397;28;20249;-84
2023/10/30 13:47:01;;;;;;;5.20;3.40;;;14.80;69.40;;;;;;6242651;28;20282;-82
2023/10/30 13:50:05;;;;;;;6.10;3.50;;;14.70;69.40;;;;;;6258554;28;20299;-83
2023/10/30 13:53:09;;;;;;;3.10;3.00;;;14.80;69.30;;;;;;6253953;28;20721;-83
2023/10/30 13:56:13;;;;;;;8.37;3.27;;;14.90;69.40;;;;;;6240473;28;20615;-85
2023/10/30 13:59:19;;;;;;;8.63;3.87;;;15.00;69.10;;;;;;6260681;28;20315;-85
2023/10/30 14:02:23;;;;;;;8.50;4.50;;;15.00;69.30;;;;;;6248500;28;20250;-84
2023/10/30 14:05:28;;;;;;;6.43;3.73;;;14.90;69.20;;;;;;6244552;28;20250;-83
2023/10/30 14:08:31;;;;;;;3.90;3.30;;;14.90;70.20;;;;;;6250772;28;20246;-85
2023/10/30 14:11:34;;;;;;;3.47;3.17;;;14.80;69.10;;;;;;6249415;28;20262;-84
2023/10/30 14:14:38;;;;;;;4.47;2.70;;;14.80;69.40;;;;;;6242907;28;20337;-83
2023/10/30 14:17:42;;;;;;;18.03;5.40;;;14.80;69.50;;;;;;6239396;28;20749;-85
2023/10/30 14:20:45;;;;;;;4.30;2.67;;;14.90;69.80;;;;;;6250954;28;20236;-84
2023/10/30 14:23:48;;;;;;;5.30;3.50;;;14.80;69.50;;;;;;6259811;28;20252;-84
2023/10/30 14:26:51;;;;;;;5.63;3.30;;;14.80;69.70;;;;;;6238417;28;20266;-84
2023/10/30 14:29:56;;;;;;;4.87;3.30;;;14.70;69.90;;;;;;6256232;28;20238;-84
2023/10/30 14:32:59;;;;;;;14.07;3.90;;;14.70;70.10;;;;;;6249563;28;20265;-82
2023/10/30 14:36:03;;;;;;;5.27;3.87;;;14.90;69.40;;;;;;6250544;28;20230;-83
2023/10/30 14:39:06;;;;;;;3.67;3.30;;;14.80;69.80;;;;;;6232733;28;20238;-84
2023/10/30 14:42:10;;;;;;;11.37;4.67;;;14.80;70.00;;;;;;6252524;28;20265;-82
2023/10/30 14:45:15;;;;;;;8.97;4.57;;;14.70;70.50;;;;;;6244985;28;20238;-83
2023/10/30 14:48:21;;;;;;;6.57;4.47;;;14.70;70.50;;;;;;6237657;28;20340;-81
2023/10/30 14:51:25;;;;;;;13.13;5.03;;;14.60;70.70;;;;;;6217681;28;20343;-82
2023/10/30 14:54:28;;;;;;;3.33;3.03;;;14.50;70.70;;;;;;6219992;28;20243;-82
2023/10/30 14:57:32;;;;;;;3.43;3.23;;;14.40;70.70;;;;;;6225371;28;20300;-83
2023/10/30 15:00:36;;;;;;;3.30;3.00;;;14.40;70.80;;;;;;6219665;28;20239;-85
2023/10/30 15:03:40;;;;;;;3.40;3.10;;;14.30;70.80;;;;;;6241172;28;20243;-83
2023/10/30 15:06:43;;;;;;;3.60;3.37;;;14.30;70.90;;;;;;6241283;28;20384;-83
2023/10/30 15:09:46;;;;;;;3.83;3.53;;;14.30;71.00;;;;;;6250988;28;20305;-82
2023/10/30 15:12:50;;;;;;;7.07;3.60;;;14.20;71.20;;;;;;6248366;28;20241;-82
2023/10/30 15:15:55;;;;;;;16.27;4.67;;;14.20;71.50;;;;;;6233076;28;20867;-84
2023/10/30 15:18:58;;;;;;;10.50;4.20;;;14.20;71.70;;;;;;6233693;28;20236;-81
2023/10/30 15:22:01;;;;;;;9.00;4.47;;;14.10;72.10;;;;;;6260108;28;20261;-85
2023/10/30 15:25:05;;;;;;;6.00;3.50;;;14.10;72.30;;;;;;6240375;28;20244;-83
2023/10/30 15:28:09;;;;;;;4.60;4.03;;;14.00;72.60;;;;;;6252837;28;20247;-83
2023/10/30 15:31:14;;;;;;;3.47;3.33;;;13.90;72.80;;;;;;6249315;28;20242;-83
2023/10/30 15:34:17;;;;;;;4.40;4.07;;;13.90;72.90;;;;;;6243649;28;20686;-83
2023/10/30 15:37:20;;;;;;;3.33;3.17;;;13.90;73.00;;;;;;6216063;28;20239;-84
2023/10/30 15:40:23;;;;;;;4.20;3.03;;;13.80;73.00;;;;;;6205558;28;20266;-83
2023/10/30 15:43:27;;;;;;;4.43;3.00;;;13.80;73.00;;;;;;6225289;28;20328;-84
2023/10/30 15:46:31;;;;;;;3.30;3.20;;;13.70;73.00;;;;;;6207601;28;20370;-84
2023/10/30 15:49:51;;;;;;;3.60;3.30;;;13.70;73.00;;;;;;6207271;28;20255;-84
2023/10/30 15:52:54;;;;;;;3.47;3.30;;;13.70;73.20;;;;;;6217796;28;20342;-82
2023/10/30 15:55:57;;;;;;;8.40;3.63;;;13.70;73.30;;;;;;6220250;28;20223;-81
2023/10/30 15:59:05;;;;;;;3.60;3.30;;;13.60;73.50;;;;;;6215031;28;20797;-84
2023/10/30 16:02:11;;;;;;;3.97;3.50;;;13.60;73.80;;;;;;6211811;28;20731;-82